createdAt,value
2022-08-24T00:00:43.563Z,978.15
2022-08-24T00:01:43.545Z,978.12
2022-08-24T00:02:43.645Z,978.14
2022-08-24T00:03:43.518Z,978.06
2022-08-24T00:04:43.509Z,978.10
2022-08-24T00:05:43.490Z,978.09
2022-08-24T00:06:43.476Z,978.07
2022-08-24T00:07:43.462Z,978.12
2022-08-24T00:08:43.455Z,978.08
2022-08-24T00:09:43.436Z,978.09
2022-08-24T00:10:44.455Z,978.10
2022-08-24T00:11:43.407Z,978.11
2022-08-24T00:12:43.396Z,978.09
2022-08-24T00:13:43.382Z,978.05
2022-08-24T00:14:43.366Z,978.14
2022-08-24T00:15:43.355Z,978.10
2022-08-24T00:16:43.420Z,978.13
2022-08-24T00:17:43.326Z,978.17
2022-08-24T00:18:43.314Z,978.17
2022-08-24T00:19:43.300Z,978.14
2022-08-24T00:20:45.329Z,978.04
2022-08-24T00:21:43.285Z,978.06
2022-08-24T00:22:43.261Z,978.09
2022-08-24T00:23:43.245Z,978.06
2022-08-24T00:24:43.242Z,978.03
2022-08-24T00:25:43.221Z,978.01
2022-08-24T00:26:43.212Z,978.05
2022-08-24T00:27:43.194Z,978.01
2022-08-24T00:28:43.193Z,977.99
2022-08-24T00:29:43.166Z,978.00
2022-08-24T00:30:43.156Z,978.04
2022-08-24T00:31:43.202Z,977.98
2022-08-24T00:32:43.127Z,978.03
2022-08-24T00:33:43.125Z,978.09
2022-08-24T00:34:44.746Z,978.07
2022-08-24T00:35:44.114Z,978.11
2022-08-24T00:36:43.082Z,978.08
2022-08-24T00:37:43.058Z,978.04
2022-08-24T00:38:43.049Z,978.03
2022-08-24T00:39:43.057Z,978.03
2022-08-24T00:40:43.024Z,978.04
2022-08-24T00:41:43.007Z,978.01
2022-08-24T00:42:42.991Z,978.02
2022-08-24T00:43:42.972Z,977.98
2022-08-24T00:44:42.965Z,977.99
2022-08-24T00:45:43.025Z,978.02
2022-08-24T00:46:42.939Z,978.00
2022-08-24T00:47:42.916Z,978.04
2022-08-24T00:48:42.907Z,978.02
2022-08-24T00:49:42.889Z,977.99
2022-08-24T00:50:42.881Z,977.97
2022-08-24T00:51:42.868Z,977.99
2022-08-24T00:52:42.858Z,978.02
2022-08-24T00:53:42.846Z,977.98
2022-08-24T00:54:46.128Z,978.00
2022-08-24T00:55:42.812Z,977.97
2022-08-24T00:56:42.796Z,978.07
2022-08-24T00:57:42.785Z,978.02
2022-08-24T00:58:42.773Z,978.04
2022-08-24T00:59:42.759Z,978.04
2022-08-24T01:00:42.778Z,978.03
2022-08-24T01:01:42.941Z,978.03
2022-08-24T01:02:42.738Z,978.12
2022-08-24T01:03:42.703Z,978.01
2022-08-24T01:04:42.695Z,978.04
2022-08-24T01:05:42.677Z,978.08
2022-08-24T01:06:42.669Z,978.10
2022-08-24T01:07:42.646Z,978.06
2022-08-24T01:08:42.640Z,978.09
2022-08-24T01:09:42.622Z,977.96
2022-08-24T01:10:42.609Z,978.04
2022-08-24T01:11:42.596Z,977.94
2022-08-24T01:12:42.586Z,977.94
2022-08-24T01:13:43.598Z,978.05
2022-08-24T01:14:42.561Z,977.97
2022-08-24T01:15:42.541Z,977.93
2022-08-24T01:16:42.546Z,978.03
2022-08-24T01:17:42.510Z,977.98
2022-08-24T01:18:42.504Z,977.98
2022-08-24T01:19:42.491Z,977.99
2022-08-24T01:20:42.481Z,978.07
2022-08-24T01:21:42.460Z,978.01
2022-08-24T01:22:42.454Z,978.08
2022-08-24T01:23:42.432Z,978.09
2022-08-24T01:24:42.420Z,978.08
2022-08-24T01:25:42.401Z,978.07
2022-08-24T01:26:42.395Z,978.12
2022-08-24T01:27:42.422Z,978.07
2022-08-24T01:28:42.365Z,978.13
2022-08-24T01:29:42.349Z,978.12
2022-08-24T01:30:42.342Z,978.05
2022-08-24T01:31:42.433Z,978.05
2022-08-24T01:32:42.314Z,978.06
2022-08-24T01:33:42.299Z,978.05
2022-08-24T01:34:42.287Z,978.04
2022-08-24T01:35:42.270Z,978.05
2022-08-24T01:36:42.268Z,978.12
2022-08-24T01:37:42.248Z,978.08
2022-08-24T01:38:42.237Z,978.20
2022-08-24T01:39:42.267Z,978.16
2022-08-24T01:40:42.205Z,978.17
2022-08-24T01:41:42.190Z,978.18
2022-08-24T01:42:42.177Z,978.15
2022-08-24T01:43:42.166Z,978.15
2022-08-24T01:44:42.151Z,978.13
2022-08-24T01:45:42.133Z,978.16
2022-08-24T01:46:42.179Z,978.21
2022-08-24T01:47:42.109Z,978.15
2022-08-24T01:48:42.101Z,978.27
2022-08-24T01:49:42.086Z,978.24
2022-08-24T01:50:42.070Z,978.19
2022-08-24T01:51:42.055Z,978.20
2022-08-24T01:53:03.882Z,978.20
2022-08-24T01:53:43.047Z,978.14
2022-08-24T01:54:43.415Z,978.23
2022-08-24T01:55:42.003Z,978.20
2022-08-24T01:56:41.990Z,978.22
2022-08-24T01:57:41.974Z,978.24
2022-08-24T01:58:41.964Z,978.23
2022-08-24T01:59:41.951Z,978.22
2022-08-24T02:00:41.938Z,978.22
2022-08-24T02:01:41.959Z,978.15
2022-08-24T02:02:41.932Z,978.16
2022-08-24T02:03:41.886Z,978.18
2022-08-24T02:04:41.882Z,978.13
2022-08-24T02:05:41.861Z,978.20
2022-08-24T02:06:41.850Z,978.23
2022-08-24T02:07:41.840Z,978.22
2022-08-24T02:08:41.826Z,978.19
2022-08-24T02:09:41.810Z,978.25
2022-08-24T02:10:41.797Z,978.22
2022-08-24T02:11:42.811Z,978.27
2022-08-24T02:12:41.772Z,978.27
2022-08-24T02:13:41.758Z,978.18
2022-08-24T02:14:41.749Z,978.17
2022-08-24T02:15:41.788Z,978.20
2022-08-24T02:16:41.719Z,978.19
2022-08-24T02:17:41.702Z,978.16
2022-08-24T02:18:41.690Z,978.18
2022-08-24T02:19:41.682Z,978.20
2022-08-24T02:20:41.658Z,978.18
2022-08-24T02:21:41.651Z,978.20
2022-08-24T02:22:41.633Z,978.20
2022-08-24T02:23:41.622Z,978.23
2022-08-24T02:24:41.623Z,978.18
2022-08-24T02:25:41.595Z,978.27
2022-08-24T02:26:41.582Z,978.15
2022-08-24T02:27:41.559Z,978.23
2022-08-24T02:28:41.557Z,978.23
2022-08-24T02:29:41.530Z,978.22
2022-08-24T02:30:41.581Z,978.23
2022-08-24T02:31:41.510Z,978.18
2022-08-24T02:32:41.499Z,978.26
2022-08-24T02:33:41.481Z,978.34
2022-08-24T02:34:41.471Z,978.25
2022-08-24T02:35:41.451Z,978.33
2022-08-24T02:36:41.440Z,978.32
2022-08-24T02:37:43.691Z,978.29
2022-08-24T02:38:41.424Z,978.33
2022-08-24T02:39:41.396Z,978.31
2022-08-24T02:40:41.384Z,978.26
2022-08-24T02:41:41.365Z,978.33
2022-08-24T02:42:41.357Z,978.27
2022-08-24T02:43:41.343Z,978.26
2022-08-24T02:44:41.336Z,978.31
2022-08-24T02:45:41.314Z,978.27
2022-08-24T02:46:41.361Z,978.27
2022-08-24T02:47:41.283Z,978.27
2022-08-24T02:48:41.275Z,978.26
2022-08-24T02:49:41.261Z,978.32
2022-08-24T02:50:41.244Z,978.26
2022-08-24T02:51:44.390Z,978.20
2022-08-24T02:52:41.223Z,978.21
2022-08-24T02:53:41.206Z,978.23
2022-08-24T02:54:41.197Z,978.19
2022-08-24T02:55:41.179Z,978.25
2022-08-24T02:56:41.162Z,978.24
2022-08-24T02:57:41.146Z,978.28
2022-08-24T02:58:41.135Z,978.25
2022-08-24T02:59:41.124Z,978.24
2022-08-24T03:00:41.112Z,978.23
2022-08-24T03:01:41.200Z,978.32
2022-08-24T03:02:41.186Z,978.24
2022-08-24T03:03:41.067Z,978.29
2022-08-24T03:04:41.057Z,978.28
2022-08-24T03:05:41.040Z,978.23
2022-08-24T03:06:41.027Z,978.31
2022-08-24T03:07:41.024Z,978.31
2022-08-24T03:08:41.006Z,978.25
2022-08-24T03:09:40.993Z,978.28
2022-08-24T03:10:40.977Z,978.34
2022-08-24T03:11:43.283Z,978.22
2022-08-24T03:12:40.946Z,978.25
2022-08-24T03:13:40.930Z,978.27
2022-08-24T03:14:40.919Z,978.24
2022-08-24T03:15:40.920Z,978.18
2022-08-24T03:16:40.894Z,978.26
2022-08-24T03:17:41.061Z,978.21
2022-08-24T03:18:40.868Z,978.19
2022-08-24T03:19:40.848Z,978.23
2022-08-24T03:20:40.840Z,978.22
2022-08-24T03:21:40.825Z,978.33
2022-08-24T03:22:40.819Z,978.26
2022-08-24T03:23:40.802Z,978.29
2022-08-24T03:24:40.794Z,978.29
2022-08-24T03:25:40.769Z,978.22
2022-08-24T03:26:44.363Z,978.33
2022-08-24T03:27:40.743Z,978.28
2022-08-24T03:28:40.730Z,978.32
2022-08-24T03:29:40.721Z,978.23
2022-08-24T03:30:40.742Z,978.31
2022-08-24T03:31:40.692Z,978.42
2022-08-24T03:32:40.679Z,978.39
2022-08-24T03:33:40.660Z,978.34
2022-08-24T03:34:40.650Z,978.34
2022-08-24T03:35:40.634Z,978.32
2022-08-24T03:36:40.619Z,978.37
2022-08-24T03:37:40.603Z,978.38
2022-08-24T03:38:40.598Z,978.25
2022-08-24T03:39:40.581Z,978.29
2022-08-24T03:40:40.598Z,978.30
2022-08-24T03:41:40.555Z,978.28
2022-08-24T03:42:40.550Z,978.20
2022-08-24T03:43:40.529Z,978.24
2022-08-24T03:44:40.519Z,978.30
2022-08-24T03:45:40.557Z,978.31
2022-08-24T03:46:40.491Z,978.24
2022-08-24T03:47:40.476Z,978.18
2022-08-24T03:48:40.462Z,978.18
2022-08-24T03:49:40.446Z,978.20
2022-08-24T03:50:40.443Z,978.31
2022-08-24T03:51:40.419Z,978.21
2022-08-24T03:52:40.414Z,978.36
2022-08-24T03:53:42.940Z,978.32
2022-08-24T03:54:40.387Z,978.33
2022-08-24T03:55:40.360Z,978.32
2022-08-24T03:56:40.353Z,978.35
2022-08-24T03:57:40.336Z,978.37
2022-08-24T03:58:40.325Z,978.36
2022-08-24T03:59:46.749Z,978.36
2022-08-24T04:00:41.323Z,978.34
2022-08-24T04:01:40.375Z,978.35
2022-08-24T04:02:40.324Z,978.41
2022-08-24T04:03:40.256Z,978.36
2022-08-24T04:04:40.242Z,978.34
2022-08-24T04:05:40.232Z,978.40
2022-08-24T04:06:40.216Z,978.37
2022-08-24T04:07:40.208Z,978.38
2022-08-24T04:08:40.200Z,978.39
2022-08-24T04:09:40.176Z,978.37
2022-08-24T04:10:40.172Z,978.40
2022-08-24T04:11:41.472Z,978.33
2022-08-24T04:12:40.139Z,978.33
2022-08-24T04:13:40.132Z,978.43
2022-08-24T04:14:40.115Z,978.40
2022-08-24T04:15:40.103Z,978.26
2022-08-24T04:16:40.338Z,978.41
2022-08-24T04:17:40.074Z,978.44
2022-08-24T04:18:40.057Z,978.38
2022-08-24T04:19:40.042Z,978.35
2022-08-24T04:20:40.030Z,978.43
2022-08-24T04:21:40.016Z,978.48
2022-08-24T04:22:39.999Z,978.42
2022-08-24T04:23:47.479Z,978.39
2022-08-24T04:24:40.998Z,978.42
2022-08-24T04:25:39.964Z,978.48
2022-08-24T04:26:45.456Z,978.45
2022-08-24T04:27:39.938Z,978.45
2022-08-24T04:28:39.922Z,978.39
2022-08-24T04:29:39.911Z,978.46
2022-08-24T04:30:39.895Z,978.41
2022-08-24T04:31:39.949Z,978.41
2022-08-24T04:32:39.875Z,978.46
2022-08-24T04:33:39.863Z,978.42
2022-08-24T04:34:39.847Z,978.40
2022-08-24T04:35:39.826Z,978.46
2022-08-24T04:36:39.811Z,978.42
2022-08-24T04:37:39.801Z,978.44
2022-08-24T04:38:39.788Z,978.42
2022-08-24T04:39:39.781Z,978.43
2022-08-24T04:40:39.765Z,978.48
2022-08-24T04:41:39.752Z,978.53
2022-08-24T04:42:39.738Z,978.49
2022-08-24T04:43:39.719Z,978.54
2022-08-24T04:44:39.706Z,978.59
2022-08-24T04:45:39.771Z,978.52
2022-08-24T04:46:39.679Z,978.52
2022-08-24T04:47:39.670Z,978.54
2022-08-24T04:48:39.649Z,978.56
2022-08-24T04:49:39.637Z,978.57
2022-08-24T04:50:39.622Z,978.60
2022-08-24T04:51:39.615Z,978.59
2022-08-24T04:52:39.601Z,978.70
2022-08-24T04:53:39.591Z,978.73
2022-08-24T04:54:39.573Z,978.72
2022-08-24T04:55:39.566Z,978.68
2022-08-24T04:56:39.552Z,978.74
2022-08-24T04:57:39.536Z,978.64
2022-08-24T04:58:39.522Z,978.62
2022-08-24T04:59:39.504Z,978.69
2022-08-24T05:00:39.566Z,978.70
2022-08-24T05:01:39.482Z,978.68
2022-08-24T05:02:44.537Z,978.71
2022-08-24T05:03:39.455Z,978.80
2022-08-24T05:04:39.440Z,978.68
2022-08-24T05:05:39.428Z,978.66
2022-08-24T05:06:39.415Z,978.68
2022-08-24T05:07:39.405Z,978.70
2022-08-24T05:08:39.383Z,978.75
2022-08-24T05:09:39.373Z,978.73
2022-08-24T05:10:39.360Z,978.74
2022-08-24T05:11:39.346Z,978.69
2022-08-24T05:12:39.329Z,978.69
2022-08-24T05:13:39.321Z,978.76
2022-08-24T05:14:39.303Z,978.73
2022-08-24T05:15:39.305Z,978.68
2022-08-24T05:16:39.388Z,978.64
2022-08-24T05:17:40.292Z,978.71
2022-08-24T05:18:39.263Z,978.74
2022-08-24T05:19:39.240Z,978.68
2022-08-24T05:20:39.230Z,978.76
2022-08-24T05:21:40.118Z,978.80
2022-08-24T05:22:39.200Z,978.76
2022-08-24T05:23:39.188Z,978.69
2022-08-24T05:24:39.195Z,978.77
2022-08-24T05:25:39.162Z,978.84
2022-08-24T05:26:39.143Z,978.85
2022-08-24T05:27:39.131Z,978.71
2022-08-24T05:28:39.130Z,978.75
2022-08-24T05:29:39.107Z,978.74
2022-08-24T05:30:42.498Z,978.66
2022-08-24T05:31:39.172Z,978.77
2022-08-24T05:32:39.064Z,978.68
2022-08-24T05:33:39.055Z,978.65
2022-08-24T05:34:39.034Z,978.68
2022-08-24T05:35:39.020Z,978.68
2022-08-24T05:36:39.006Z,978.72
2022-08-24T05:37:38.991Z,978.68
2022-08-24T05:38:38.976Z,978.74
2022-08-24T05:39:38.970Z,978.74
2022-08-24T05:40:38.956Z,978.69
2022-08-24T05:41:38.945Z,978.59
2022-08-24T05:42:38.924Z,978.60
2022-08-24T05:43:38.913Z,978.63
2022-08-24T05:44:38.897Z,978.67
2022-08-24T05:45:38.888Z,978.55
2022-08-24T05:46:38.938Z,978.66
2022-08-24T05:47:38.855Z,978.67
2022-08-24T05:48:38.846Z,978.56
2022-08-24T05:49:41.538Z,978.66
2022-08-24T05:50:38.811Z,978.63
2022-08-24T05:51:38.801Z,978.65
2022-08-24T05:52:38.787Z,978.65
2022-08-24T05:53:38.778Z,978.58
2022-08-24T05:54:38.761Z,978.56
2022-08-24T05:55:38.753Z,978.66
2022-08-24T05:56:38.732Z,978.64
2022-08-24T05:57:38.721Z,978.67
2022-08-24T05:58:38.711Z,978.63
2022-08-24T05:59:38.695Z,978.63
2022-08-24T06:00:38.679Z,978.67
2022-08-24T06:01:42.202Z,978.61
2022-08-24T06:02:38.703Z,978.71
2022-08-24T06:03:38.645Z,978.70
2022-08-24T06:04:38.626Z,978.66
2022-08-24T06:05:38.609Z,978.70
2022-08-24T06:06:38.594Z,978.68
2022-08-24T06:07:38.591Z,978.64
2022-08-24T06:08:41.506Z,978.67
2022-08-24T06:09:38.563Z,978.70
2022-08-24T06:10:38.599Z,978.64
2022-08-24T06:11:38.539Z,978.71
2022-08-24T06:12:38.514Z,978.69
2022-08-24T06:13:38.502Z,978.71
2022-08-24T06:14:38.489Z,978.69
2022-08-24T06:15:38.486Z,978.69
2022-08-24T06:16:38.523Z,978.73
2022-08-24T06:17:38.505Z,978.64
2022-08-24T06:18:38.437Z,978.65
2022-08-24T06:19:38.428Z,978.69
2022-08-24T06:20:38.409Z,978.65
2022-08-24T06:21:38.397Z,978.62
2022-08-24T06:22:38.388Z,978.62
2022-08-24T06:23:38.375Z,978.64
2022-08-24T06:24:38.355Z,978.51
2022-08-24T06:25:38.347Z,978.68
2022-08-24T06:26:38.330Z,978.59
2022-08-24T06:27:38.320Z,978.59
2022-08-24T06:28:38.297Z,978.66
2022-08-24T06:29:38.290Z,978.66
2022-08-24T06:30:38.274Z,978.65
2022-08-24T06:31:39.648Z,978.64
2022-08-24T06:32:38.251Z,978.65
2022-08-24T06:33:38.234Z,978.62
2022-08-24T06:34:38.223Z,978.55
2022-08-24T06:35:38.211Z,978.58
2022-08-24T06:36:40.129Z,978.51
2022-08-24T06:37:38.179Z,978.51
2022-08-24T06:38:38.162Z,978.57
2022-08-24T06:39:38.157Z,978.56
2022-08-24T06:40:38.139Z,978.52
2022-08-24T06:41:38.131Z,978.56
2022-08-24T06:42:38.113Z,978.53
2022-08-24T06:43:38.104Z,978.54
2022-08-24T06:44:38.084Z,978.59
2022-08-24T06:45:38.074Z,978.52
2022-08-24T06:46:38.132Z,978.57
2022-08-24T06:47:38.059Z,978.59
2022-08-24T06:48:38.034Z,978.54
2022-08-24T06:49:38.021Z,978.63
2022-08-24T06:50:38.009Z,978.64
2022-08-24T06:51:37.995Z,978.64
2022-08-24T06:52:37.980Z,978.65
2022-08-24T06:53:37.967Z,978.70
2022-08-24T06:54:37.952Z,978.64
2022-08-24T06:55:37.946Z,978.68
2022-08-24T06:56:37.925Z,978.58
2022-08-24T06:57:37.915Z,978.70
2022-08-24T06:58:37.899Z,978.71
2022-08-24T06:59:37.889Z,978.66
2022-08-24T07:00:37.877Z,978.62
2022-08-24T07:01:37.968Z,978.61
2022-08-24T07:02:37.900Z,978.67
2022-08-24T07:03:37.833Z,978.66
2022-08-24T07:04:37.815Z,978.66
2022-08-24T07:05:37.807Z,978.70
2022-08-24T07:06:37.790Z,978.69
2022-08-24T07:07:37.783Z,978.68
2022-08-24T07:08:37.767Z,978.65
2022-08-24T07:09:37.759Z,978.62
2022-08-24T07:10:37.741Z,978.72
2022-08-24T07:11:37.730Z,978.69
2022-08-24T07:12:37.709Z,978.56
2022-08-24T07:13:37.700Z,978.62
2022-08-24T07:14:37.682Z,978.61
2022-08-24T07:15:37.704Z,978.61
2022-08-24T07:16:37.663Z,978.62
2022-08-24T07:17:37.652Z,978.62
2022-08-24T07:18:37.632Z,978.68
2022-08-24T07:19:37.622Z,978.61
2022-08-24T07:20:37.655Z,978.58
2022-08-24T07:21:37.594Z,978.59
2022-08-24T07:22:37.578Z,978.63
2022-08-24T07:23:41.766Z,978.62
2022-08-24T07:24:37.663Z,978.62
2022-08-24T07:25:37.550Z,978.64
2022-08-24T07:26:37.528Z,978.66
2022-08-24T07:27:37.517Z,978.64
2022-08-24T07:28:37.501Z,978.70
2022-08-24T07:29:50.501Z,978.66
2022-08-24T07:30:38.505Z,978.64
2022-08-24T07:31:37.499Z,978.62
2022-08-24T07:32:37.455Z,978.60
2022-08-24T07:33:37.446Z,978.58
2022-08-24T07:34:37.445Z,978.55
2022-08-24T07:35:37.416Z,978.51
2022-08-24T07:36:39.927Z,978.52
2022-08-24T07:37:41.357Z,978.55
2022-08-24T07:38:37.372Z,978.57
2022-08-24T07:39:37.368Z,978.51
2022-08-24T07:41:01.756Z,978.53
2022-08-24T07:41:51.573Z,978.61
2022-08-24T07:42:38.386Z,978.62
2022-08-24T07:43:40.952Z,978.58
2022-08-24T07:44:37.302Z,978.59
2022-08-24T07:45:37.287Z,978.57
2022-08-24T07:46:37.315Z,978.56
2022-08-24T07:47:40.517Z,978.55
2022-08-24T07:48:37.248Z,978.51
2022-08-24T07:49:39.503Z,978.48
2022-08-24T07:50:37.225Z,978.52
2022-08-24T07:51:37.257Z,978.54
2022-08-24T07:52:37.201Z,978.53
2022-08-24T07:53:52.491Z,978.48
2022-08-24T07:54:38.197Z,978.47
2022-08-24T07:55:45.849Z,978.55
2022-08-24T07:56:38.175Z,978.50
2022-08-24T07:57:37.142Z,978.46
2022-08-24T07:58:37.128Z,978.53
2022-08-24T07:59:37.120Z,978.51
2022-08-24T08:00:37.102Z,978.54
2022-08-24T08:01:37.172Z,978.52
2022-08-24T08:02:37.105Z,978.47
2022-08-24T08:03:37.066Z,978.51
2022-08-24T08:04:37.049Z,978.47
2022-08-24T08:05:37.037Z,978.41
2022-08-24T08:06:37.027Z,978.40
2022-08-24T08:07:37.016Z,978.39
2022-08-24T08:08:37.005Z,978.47
2022-08-24T08:09:36.990Z,978.46
2022-08-24T08:10:36.975Z,978.46
2022-08-24T08:11:36.959Z,978.50
2022-08-24T08:12:36.949Z,978.53
2022-08-24T08:13:36.955Z,978.46
2022-08-24T08:14:36.925Z,978.53
2022-08-24T08:15:36.959Z,978.56
2022-08-24T08:16:36.938Z,978.52
2022-08-24T08:17:36.883Z,978.59
2022-08-24T08:18:36.878Z,978.54
2022-08-24T08:19:36.860Z,978.53
2022-08-24T08:20:36.886Z,978.56
2022-08-24T08:21:36.837Z,978.53
2022-08-24T08:22:36.824Z,978.54
2022-08-24T08:23:36.808Z,978.47
2022-08-24T08:24:36.799Z,978.50
2022-08-24T08:25:36.780Z,978.49
2022-08-24T08:26:36.772Z,978.50
2022-08-24T08:27:36.803Z,978.47
2022-08-24T08:28:37.375Z,978.42
2022-08-24T08:29:36.735Z,978.40
2022-08-24T08:30:36.755Z,978.41
2022-08-24T08:31:36.746Z,978.50
2022-08-24T08:32:36.700Z,978.53
2022-08-24T08:33:36.682Z,978.43
2022-08-24T08:34:36.674Z,978.47
2022-08-24T08:35:36.664Z,978.43
2022-08-24T08:36:36.659Z,978.41
2022-08-24T08:38:36.628Z,978.31
2022-08-24T08:39:36.616Z,978.31
2022-08-24T08:40:36.606Z,978.29
2022-08-24T08:41:36.586Z,978.31
2022-08-24T08:42:36.579Z,978.27
2022-08-24T08:43:36.653Z,978.26
2022-08-24T08:44:36.564Z,978.28
2022-08-24T08:45:36.544Z,978.24
2022-08-24T08:46:40.665Z,978.24
2022-08-24T08:47:36.521Z,978.24
2022-08-24T08:48:36.507Z,978.18
2022-08-24T08:49:36.493Z,978.13
2022-08-24T08:50:36.480Z,978.16
2022-08-24T08:51:36.475Z,978.19
2022-08-24T08:52:36.465Z,978.17
2022-08-24T08:53:36.451Z,978.12
2022-08-24T08:54:36.436Z,978.06
2022-08-24T08:55:36.516Z,978.11
2022-08-24T08:56:36.423Z,978.09
2022-08-24T08:57:36.460Z,978.06
2022-08-24T08:58:36.443Z,978.04
2022-08-24T08:59:36.459Z,978.03
2022-08-24T09:00:36.451Z,977.96
2022-08-24T09:01:46.927Z,977.99
2022-08-24T09:02:37.456Z,978.01
2022-08-24T09:03:36.397Z,978.05
2022-08-24T09:04:36.462Z,978.00
2022-08-24T09:05:36.377Z,977.98
2022-08-24T09:06:36.343Z,978.01
2022-08-24T09:07:36.362Z,977.96
2022-08-24T09:08:36.284Z,977.89
2022-08-24T09:09:36.257Z,977.92
2022-08-24T09:10:36.258Z,977.88
2022-08-24T09:11:36.245Z,977.89
2022-08-24T09:12:36.233Z,977.92
2022-08-24T09:13:36.215Z,977.87
2022-08-24T09:14:36.207Z,977.86
2022-08-24T09:15:36.190Z,977.81
2022-08-24T09:16:36.225Z,977.82
2022-08-24T09:17:36.170Z,977.88
2022-08-24T09:18:36.159Z,977.94
2022-08-24T09:19:36.150Z,978.00
2022-08-24T09:20:36.139Z,977.96
2022-08-24T09:21:36.127Z,977.96
2022-08-24T09:22:36.121Z,977.96
2022-08-24T09:23:36.101Z,978.00
2022-08-24T09:24:36.089Z,977.94
2022-08-24T09:25:36.075Z,978.01
2022-08-24T09:26:36.076Z,977.97
2022-08-24T09:27:36.450Z,977.93
2022-08-24T09:28:36.047Z,977.98
2022-08-24T09:29:36.031Z,977.94
2022-08-24T09:30:36.054Z,977.95
2022-08-24T09:31:36.007Z,977.96
2022-08-24T09:32:35.994Z,977.98
2022-08-24T09:33:35.979Z,977.92
2022-08-24T09:34:36.111Z,978.05
2022-08-24T09:35:35.964Z,977.94
2022-08-24T09:36:35.952Z,977.88
2022-08-24T09:37:36.094Z,977.93
2022-08-24T09:38:35.926Z,977.91
2022-08-24T09:39:35.915Z,978.02
2022-08-24T09:40:35.905Z,977.92
2022-08-24T09:41:35.885Z,977.98
2022-08-24T09:42:35.889Z,977.99
2022-08-24T09:43:35.869Z,977.96
2022-08-24T09:44:35.862Z,977.98
2022-08-24T09:45:35.897Z,977.93
2022-08-24T09:46:35.837Z,978.00
2022-08-24T09:47:35.818Z,977.92
2022-08-24T09:48:35.811Z,977.94
2022-08-24T09:49:35.808Z,977.89
2022-08-24T09:50:35.790Z,977.86
2022-08-24T09:51:35.794Z,977.94
2022-08-24T09:52:35.775Z,977.88
2022-08-24T09:53:35.756Z,977.97
2022-08-24T09:54:35.750Z,977.95
2022-08-24T09:55:35.742Z,977.93
2022-08-24T09:56:35.734Z,977.99
2022-08-24T09:57:59.380Z,977.94
2022-08-24T09:58:36.777Z,977.97
2022-08-24T09:59:35.749Z,977.96
2022-08-24T10:00:35.752Z,977.98
2022-08-24T10:01:35.807Z,977.87
2022-08-24T10:02:35.741Z,977.91
2022-08-24T10:03:38.491Z,977.86
2022-08-24T10:04:35.845Z,977.83
2022-08-24T10:05:36.931Z,977.86
2022-08-24T10:06:35.618Z,977.88
2022-08-24T10:07:35.603Z,977.91
2022-08-24T10:08:35.594Z,977.90
2022-08-24T10:09:35.654Z,977.87
2022-08-24T10:10:35.570Z,977.84
2022-08-24T10:11:35.552Z,977.79
2022-08-24T10:12:35.551Z,977.84
2022-08-24T10:13:35.530Z,977.80
2022-08-24T10:14:35.522Z,977.92
2022-08-24T10:15:35.508Z,977.92
2022-08-24T10:16:35.580Z,977.78
2022-08-24T10:17:35.493Z,977.78
2022-08-24T10:18:35.519Z,977.81
2022-08-24T10:19:35.460Z,977.73
2022-08-24T10:20:35.452Z,977.74
2022-08-24T10:21:35.439Z,977.67
2022-08-24T10:22:35.430Z,977.65
2022-08-24T10:23:35.416Z,977.64
2022-08-24T10:24:35.408Z,977.68
2022-08-24T10:25:35.394Z,977.62
2022-08-24T10:26:35.387Z,977.57
2022-08-24T10:27:35.376Z,977.52
2022-08-24T10:28:35.521Z,977.49
2022-08-24T10:29:35.354Z,977.41
2022-08-24T10:30:35.346Z,977.48
2022-08-24T10:31:35.395Z,977.44
2022-08-24T10:32:35.326Z,977.35
2022-08-24T10:33:35.312Z,977.45
2022-08-24T10:34:35.301Z,977.49
2022-08-24T10:35:35.283Z,977.35
2022-08-24T10:36:35.271Z,977.31
2022-08-24T10:37:35.264Z,977.30
2022-08-24T10:38:36.279Z,977.30
2022-08-24T10:39:35.242Z,977.26
2022-08-24T10:40:35.294Z,977.29
2022-08-24T10:41:35.217Z,977.28
2022-08-24T10:42:35.217Z,977.31
2022-08-24T10:43:35.200Z,977.37
2022-08-24T10:44:35.197Z,977.26
2022-08-24T10:45:35.269Z,977.27
2022-08-24T10:46:35.174Z,977.30
2022-08-24T10:47:35.163Z,977.24
2022-08-24T10:48:35.166Z,977.18
2022-08-24T10:49:35.191Z,977.18
2022-08-24T10:50:35.161Z,977.28
2022-08-24T10:51:35.169Z,977.22
2022-08-24T10:52:35.142Z,977.33
2022-08-24T10:53:35.147Z,977.29
2022-08-24T10:54:35.112Z,977.34
2022-08-24T10:55:35.201Z,977.38
2022-08-24T10:56:35.119Z,977.41
2022-08-24T10:57:35.098Z,977.32
2022-08-24T10:58:35.081Z,977.32
2022-08-24T10:59:35.031Z,977.31
2022-08-24T11:00:35.024Z,977.30
2022-08-24T11:01:35.162Z,977.36
2022-08-24T11:02:35.054Z,977.42
2022-08-24T11:03:34.987Z,977.43
2022-08-24T11:04:34.985Z,977.45
2022-08-24T11:05:34.971Z,977.40
2022-08-24T11:06:34.963Z,977.40
2022-08-24T11:09:24.974Z,977.43
2022-08-24T11:10:24.963Z,977.40
2022-08-24T11:11:24.951Z,977.37
2022-08-24T11:12:25.074Z,977.34
2022-08-24T11:13:24.932Z,977.30
2022-08-24T11:14:24.925Z,977.34
2022-08-24T11:15:24.911Z,977.35
2022-08-24T11:16:25.022Z,977.32
2022-08-24T11:17:24.881Z,977.42
2022-08-24T11:18:24.882Z,977.35
2022-08-24T11:19:24.861Z,977.36
2022-08-24T11:20:24.855Z,977.39
2022-08-24T11:21:24.842Z,977.40
2022-08-24T11:22:24.833Z,977.37
2022-08-24T11:23:28.312Z,977.25
2022-08-24T11:24:25.836Z,977.19
2022-08-24T11:25:24.793Z,977.17
2022-08-24T11:26:24.785Z,977.21
2022-08-24T11:27:24.773Z,977.19
2022-08-24T11:28:24.770Z,977.18
2022-08-24T11:29:24.755Z,977.21
2022-08-24T11:30:24.745Z,977.15
2022-08-24T11:31:24.785Z,977.14
2022-08-24T11:32:24.720Z,977.17
2022-08-24T11:33:24.706Z,977.18
2022-08-24T11:34:24.698Z,977.05
2022-08-24T11:35:24.681Z,977.07
2022-08-24T11:36:24.675Z,977.07
2022-08-24T11:37:27.090Z,977.13
2022-08-24T11:38:25.701Z,977.12
2022-08-24T11:39:24.642Z,977.15
2022-08-24T11:40:24.691Z,977.21
2022-08-24T11:41:24.619Z,977.14
2022-08-24T11:42:27.470Z,977.07
2022-08-24T11:43:24.595Z,977.14
2022-08-24T11:44:24.589Z,977.15
2022-08-24T11:45:24.572Z,977.19
2022-08-24T11:46:24.597Z,977.08
2022-08-24T11:47:24.543Z,977.08
2022-08-24T11:48:28.499Z,977.22
2022-08-24T11:49:24.524Z,977.18
2022-08-24T11:50:24.516Z,977.15
2022-08-24T11:51:24.504Z,977.15
2022-08-24T11:52:24.496Z,977.10
2022-08-24T11:53:24.489Z,977.21
2022-08-24T11:54:24.492Z,977.20
2022-08-24T11:55:24.586Z,977.13
2022-08-24T11:56:25.723Z,977.18
2022-08-24T11:57:24.521Z,977.22
2022-08-24T11:58:24.426Z,977.22
2022-08-24T11:59:24.433Z,977.26
2022-08-24T12:00:24.400Z,977.26
2022-08-24T12:01:24.389Z,977.27
2022-08-24T12:02:24.470Z,977.32
2022-08-24T12:03:24.476Z,977.24
2022-08-24T12:04:24.353Z,977.23
2022-08-24T12:05:24.349Z,977.27
2022-08-24T12:06:24.331Z,977.23
2022-08-24T12:07:25.343Z,977.24
2022-08-24T12:08:24.312Z,977.33
2022-08-24T12:09:24.305Z,977.48
2022-08-24T12:10:24.353Z,977.39
2022-08-24T12:11:24.284Z,977.36
2022-08-24T12:12:24.271Z,977.30
2022-08-24T12:13:24.260Z,977.31
2022-08-24T12:14:24.246Z,977.31
2022-08-24T12:15:24.241Z,977.31
2022-08-24T12:16:24.265Z,977.34
2022-08-24T12:17:24.212Z,977.32
2022-08-24T12:18:24.212Z,977.25
2022-08-24T12:19:24.190Z,977.22
2022-08-24T12:20:24.177Z,977.29
2022-08-24T12:21:24.167Z,977.23
2022-08-24T12:22:24.155Z,977.24
2022-08-24T12:23:24.142Z,977.23
2022-08-24T12:24:24.130Z,977.28
2022-08-24T12:25:24.128Z,977.17
2022-08-24T12:26:24.113Z,977.25
2022-08-24T12:27:24.104Z,977.20
2022-08-24T12:28:24.340Z,977.23
2022-08-24T12:29:24.078Z,977.20
2022-08-24T12:30:24.062Z,977.17
2022-08-24T12:31:24.143Z,977.16